Burning Fork, Kentucky
Current Conditions -  °F | °C
As of 6:53 AM on Friday 28 Nov 2014 (Local Time) from KJKL Reporting Station
Overcast Overcast  
Wind Chill: 19°   Ceiling: 2800
Heat Index: 26°   Visibility: 10mi
Dew Point: 16°   Wind: 6mph
Humidity: 66%   Direction: 250°WSW
Pressure: 30.38"   Gusts: NA
Location:  37.7261°N, 83.0786°W
Report Text: KJKL 281153Z AUTO 25005KT 10SM OVC028 M03/M09 A3038 RMK AO2 SLP302 70001 T10331089 11022 21033 53010
Loading
Personal Weather Stations






























Interactive Weather Map New forecast layout! Learn more

10-Day Weather Forecast

Advertisements
Track Severe Weather on mobile